Time;durP1;ratioP1;P1;durP2;ratioP2;P2;SDS_P1;SDS_P2;PMS_P1;PMS_P2;Temp;Humidity;BMP_temperature;BMP_pressure;BME280_temperature;BME280_humidity;BME280_pressure;Samples;Min_cycle;Max_cycle;Signal;HPM_P1;HPM_P2
2023/12/03 00:00:02;;;;;;;;;26.50;23.00;;;;;3.16;54.83;101442.72;5101343;27;45453;-84
2023/12/03 00:02:28;;;;;;;;;26.00;25.75;;;;;3.11;54.88;101428.72;5100462;27;44765;-88
2023/12/03 00:04:54;;;;;;;;;27.75;22.00;;;;;3.09;55.30;101430.50;5100413;27;45232;-86
2023/12/03 00:07:23;;;;;;;;;28.25;26.00;;;;;3.09;54.96;101434.91;5100840;27;45354;-87
2023/12/03 00:09:49;;;;;;;;;34.50;27.00;;;;;3.03;55.74;101430.59;5102059;27;45358;-86
2023/12/03 00:12:14;;;;;;;;;31.50;30.00;;;;;3.02;55.10;101428.88;5102834;27;45386;-85
2023/12/03 00:14:39;;;;;;;;;41.50;26.00;;;;;3.06;55.41;101441.06;5101595;27;58792;-87
2023/12/03 00:17:04;;;;;;;;;30.00;24.25;;;;;3.06;55.15;101434.94;5101650;27;45509;-88
2023/12/03 00:19:30;;;;;;;;;30.50;22.75;;;;;3.04;55.15;101437.59;5081561;27;67155;-85
2023/12/03 00:21:55;;;;;;;;;31.25;29.75;;;;;3.04;55.41;101441.97;5099852;27;45424;-87
2023/12/03 00:24:21;;;;;;;;;24.50;22.25;;;;;2.98;54.96;101432.41;5100517;27;45424;-85
2023/12/03 00:26:47;;;;;;;;;27.50;23.50;;;;;2.86;55.34;101417.63;5100403;27;45552;-86
2023/12/03 00:29:13;;;;;;;;;20.50;20.50;;;;;2.96;55.50;101429.78;5100451;27;45329;-85
2023/12/03 00:31:38;;;;;;;;;30.50;25.25;;;;;2.93;55.87;101440.34;5099111;27;58191;-82
2023/12/03 00:34:05;;;;;;;;;35.00;25.25;;;;;2.85;55.63;101434.28;5100501;27;45240;-84
2023/12/03 00:36:30;;;;;;;;;27.75;24.75;;;;;2.91;55.42;101436.88;5100376;27;45503;-82
2023/12/03 00:38:56;;;;;;;;;29.00;24.00;;;;;2.90;55.60;101432.50;5101610;27;45444;-84
2023/12/03 00:41:21;;;;;;;;;26.75;22.50;;;;;2.86;55.70;101430.78;5101347;27;45322;-81
2023/12/03 00:43:47;;;;;;;;;37.25;28.00;;;;;2.86;55.69;101422.88;5101042;27;45492;-84
2023/12/03 00:46:13;;;;;;;;;27.50;23.75;;;;;2.77;55.14;101437.91;5099307;27;45258;-85
2023/12/03 00:48:39;;;;;;;;;27.00;21.50;;;;;2.79;55.88;101447.50;5099593;27;59154;-84
2023/12/03 00:51:04;;;;;;;;;35.50;27.50;;;;;2.79;55.80;101439.63;5098526;27;45417;-85
2023/12/03 00:53:30;;;;;;;;;26.00;26.00;;;;;2.76;56.48;101415.16;5098316;27;45322;-84
2023/12/03 00:55:55;;;;;;;;;31.00;26.25;;;;;2.82;55.88;101426.44;5079658;27;58985;-85
2023/12/03 00:58:20;;;;;;;;;36.25;34.00;;;;;2.82;56.22;101421.19;5099143;27;46156;-84
2023/12/03 01:00:46;;;;;;;;;30.50;30.50;;;;;2.80;56.37;101419.47;5099199;27;45454;-88
2023/12/03 01:03:11;;;;;;;;;35.50;29.75;;;;;2.83;56.41;101430.81;5102353;27;45460;-86
2023/12/03 01:05:36;;;;;;;;;40.75;27.25;;;;;2.83;56.37;101428.19;5101911;27;45513;-85
2023/12/03 01:08:02;;;;;;;;;31.25;27.50;;;;;2.83;56.85;101429.94;5097135;27;67793;-85
2023/12/03 01:10:27;;;;;;;;;32.75;26.25;;;;;2.74;56.47;101423.06;5098976;27;45385;-84
2023/12/03 01:12:52;;;;;;;;;38.50;30.25;;;;;2.73;56.31;101426.53;5102849;27;44793;-83
2023/12/03 01:15:18;;;;;;;;;29.00;26.25;;;;;2.77;56.20;101430.91;5102420;27;45473;-85
2023/12/03 01:17:43;;;;;;;;;35.50;26.25;;;;;2.62;56.71;101408.28;5100880;27;46085;-84
2023/12/03 01:20:09;;;;;;;;;33.50;28.00;;;;;2.67;56.55;101421.38;5099429;27;57496;-86
2023/12/03 01:22:34;;;;;;;;;32.00;31.50;;;;;2.60;56.28;101404.81;5100543;27;45318;-87
2023/12/03 01:25:00;;;;;;;;;46.50;30.50;;;;;2.72;56.41;101427.41;5099319;27;45278;-84
2023/12/03 01:27:25;;;;;;;;;37.25;34.75;;;;;2.72;56.39;101421.31;5099915;27;45280;-87
2023/12/03 01:29:50;;;;;;;;;41.00;33.50;;;;;2.74;56.38;101423.06;5099139;27;45214;-89
2023/12/03 01:32:16;;;;;;;;;37.75;26.00;;;;;2.67;56.46;101410.84;5097833;27;45264;-86
2023/12/03 01:34:41;;;;;;;;;30.50;28.50;;;;;2.73;56.55;101429.16;5098106;27;45564;-89
2023/12/03 01:37:06;;;;;;;;;31.50;23.50;;;;;2.70;56.44;101423.94;5097925;27;57595;-85
2023/12/03 01:39:32;;;;;;;;;36.75;30.25;;;;;2.70;56.77;101420.44;5098166;27;45243;-85
2023/12/03 01:41:57;;;;;;;;;34.00;27.25;;;;;2.68;56.89;101425.72;5098949;27;45262;-84
2023/12/03 01:44:22;;;;;;;;;33.50;29.25;;;;;2.74;56.53;101432.69;5098547;27;59261;-85
2023/12/03 01:46:49;;;;;;;;;33.50;33.50;;;;;2.71;56.86;101422.19;5097770;27;52879;-84
2023/12/03 01:49:15;;;;;;;;;42.00;35.25;;;;;2.68;56.74;101417.84;5098291;27;45377;-83
2023/12/03 01:51:41;;;;;;;;;32.50;32.25;;;;;2.61;56.99;101424.06;5099722;27;45432;-80
2023/12/03 01:54:07;;;;;;;;;34.25;30.50;;;;;2.52;56.80;101418.91;5099457;27;45456;-84
2023/12/03 01:56:32;;;;;;;;;40.25;35.50;;;;;2.48;57.33;101425.06;5099370;27;46235;-83
2023/12/03 01:58:58;;;;;;;;;50.25;41.25;;;;;2.41;58.03;101415.50;5097517;27;45256;-82
2023/12/03 02:01:23;;;;;;;;;40.50;31.75;;;;;2.30;58.11;101410.34;5097211;27;45470;-81
2023/12/03 02:03:49;;;;;;;;;34.00;30.75;;;;;2.24;58.80;101415.66;5097805;27;45214;-85
2023/12/03 02:06:15;;;;;;;;;42.50;39.50;;;;;2.19;58.97;101426.19;5097152;27;46075;-82
2023/12/03 02:08:40;;;;;;;;;42.25;38.00;;;;;2.15;58.97;101429.72;5098063;27;45331;-85
2023/12/03 02:11:07;;;;;;;;;34.50;27.25;;;;;2.12;59.86;101427.13;5098691;27;45258;-87
2023/12/03 02:13:34;;;;;;;;;53.50;38.00;;;;;2.04;59.72;101423.69;5099185;27;45238;-85
2023/12/03 02:16:00;;;;;;;;;49.75;37.25;;;;;1.93;60.22;101409.78;5098105;27;45460;-82
2023/12/03 02:18:26;;;;;;;;;45.75;35.75;;;;;1.88;59.83;101401.06;5097551;27;45330;-88
2023/12/03 02:20:52;;;;;;;;;42.75;38.75;;;;;1.81;60.49;101409.84;5097695;27;45387;-86
2023/12/03 02:23:17;;;;;;;;;33.50;30.00;;;;;1.78;61.07;101416.88;5097481;27;45505;-86
2023/12/03 02:25:43;;;;;;;;;48.50;39.00;;;;;1.73;60.87;101409.94;5096805;27;45380;-85
2023/12/03 02:28:08;;;;;;;;;35.25;28.50;;;;;1.61;60.79;101397.75;5097729;27;45373;-84
2023/12/03 02:30:34;;;;;;;;;42.50;38.00;;;;;1.65;61.30;101409.09;5097841;27;45353;-84
2023/12/03 02:32:59;;;;;;;;;41.00;35.50;;;;;1.66;60.85;101416.06;5097532;27;45530;-87
2023/12/03 02:35:25;;;;;;;;;45.25;34.75;;;;;1.66;61.35;101422.19;5097377;27;45921;-84
2023/12/03 02:37:50;;;;;;;;;49.50;37.75;;;;;1.61;60.83;101418.75;5097410;27;45295;-85
2023/12/03 02:40:15;;;;;;;;;48.50;35.50;;;;;1.71;61.10;101417.81;5096666;27;61898;-83
2023/12/03 02:42:41;;;;;;;;;19.75;19.75;;;;;1.58;60.96;101407.41;5098517;27;48692;-83
2023/12/03 02:45:07;;;;;;;;;41.25;34.00;;;;;1.60;61.62;101416.13;5098414;27;45483;-84
2023/12/03 02:47:33;;;;;;;;;36.75;29.00;;;;;1.43;61.53;101388.28;5099127;27;45331;-85
2023/12/03 02:49:59;;;;;;;;;29.75;27.75;;;;;1.53;61.67;101410.03;5098197;27;45603;-82
2023/12/03 02:52:24;;;;;;;;;45.25;42.00;;;;;1.51;61.54;101408.31;5099878;27;45318;-86
2023/12/03 02:54:49;;;;;;;;;32.00;25.75;;;;;1.45;61.71;101394.38;5096688;27;46229;-85
2023/12/03 02:57:14;;;;;;;;;41.50;34.00;;;;;1.46;62.03;101403.09;5096997;27;48973;-83
2023/12/03 02:59:40;;;;;;;;;26.25;14.25;;;;;1.47;61.88;101390.00;5096590;27;57594;-86
2023/12/03 03:02:05;;;;;;;;;40.00;35.25;;;;;1.54;61.59;101397.81;5097319;27;45493;-84
2023/12/03 03:04:30;;;;;;;;;38.75;34.25;;;;;1.51;61.73;101396.06;5096218;27;55277;-83
2023/12/03 03:06:56;;;;;;;;;41.75;32.50;;;;;1.54;61.36;101401.28;5096971;27;45279;-86
2023/12/03 03:09:21;;;;;;;;;40.00;31.75;;;;;1.55;61.86;101383.81;5095272;27;59238;-81
2023/12/03 03:11:46;;;;;;;;;34.50;27.75;;;;;1.64;61.19;101399.50;5096937;27;45618;-85
2023/12/03 03:14:12;;;;;;;;;42.50;37.50;;;;;1.67;61.17;101407.34;5097763;27;46310;-86
2023/12/03 03:16:37;;;;;;;;;39.50;36.00;;;;;1.63;60.97;101403.88;5097510;27;45430;-84
2023/12/03 03:19:04;;;;;;;;;38.25;32.25;;;;;1.57;61.54;101390.81;5096967;27;55329;-84
2023/12/03 03:21:29;;;;;;;;;39.25;31.75;;;;;1.59;61.24;101402.16;5096567;27;45242;-85
2023/12/03 03:23:55;;;;;;;;;31.25;27.75;;;;;1.57;61.45;101414.41;5077939;27;54627;-85
2023/12/03 03:26:20;;;;;;;;;34.75;29.50;;;;;1.45;61.15;101393.50;5096979;27;45272;-85
2023/12/03 03:28:45;;;;;;;;;32.75;24.50;;;;;1.63;60.95;101421.34;5096127;27;53059;-85
2023/12/03 03:31:10;;;;;;;;;37.50;27.75;;;;;1.60;60.92;101426.63;5099012;27;51640;-84
2023/12/03 03:33:36;;;;;;;;;47.00;35.00;;;;;1.54;61.30;101411.78;5099770;27;64689;-85
2023/12/03 03:36:01;;;;;;;;;33.25;24.00;;;;;1.58;61.70;101425.75;5101694;27;54146;-80
2023/12/03 03:38:26;;;;;;;;;36.25;29.75;;;;;1.48;62.03;101417.06;5101967;27;45440;-85
2023/12/03 03:40:53;;;;;;;;;39.25;30.50;;;;;1.52;61.69;101418.78;5099651;27;58177;-84
2023/12/03 03:43:18;;;;;;;;;39.25;34.75;;;;;1.52;61.58;101424.03;5100026;27;45509;-88
2023/12/03 03:45:43;;;;;;;;;34.25;33.50;;;;;1.51;61.81;101424.91;5099607;27;56201;-87
2023/12/03 03:48:09;;;;;;;;;18.50;16.75;;;;;1.47;62.48;101410.97;5099966;27;47244;-86
2023/12/03 03:50:34;;;;;;;;;34.75;30.50;;;;;1.50;62.41;101419.69;5100897;27;45444;-84
2023/12/03 03:52:59;;;;;;;;;30.75;27.75;;;;;1.35;61.91;101394.44;5099541;27;50256;-84
2023/12/03 03:55:25;;;;;;;;;36.50;32.00;;;;;1.35;62.52;101403.16;5099109;27;59863;-82
2023/12/03 03:57:50;;;;;;;;;36.25;28.50;;;;;1.37;62.31;101413.63;5099626;27;45321;-84
2023/12/03 04:00:16;;;;;;;;;39.75;33.25;;;;;1.34;63.36;101411.03;5098878;27;56913;-81
2023/12/03 04:02:41;;;;;;;;;43.00;34.75;;;;;1.38;62.80;101412.75;5098981;27;45386;-84
2023/12/03 04:05:07;;;;;;;;;31.75;31.75;;;;;1.41;62.38;101404.88;5100167;27;45420;-85
2023/12/03 04:07:33;;;;;;;;;38.00;30.75;;;;;1.40;62.24;101400.50;5100097;27;45327;-82
2023/12/03 04:09:58;;;;;;;;;25.75;20.75;;;;;1.37;62.78;101396.16;5100147;27;45614;-81
2023/12/03 04:12:24;;;;;;;;;36.75;29.00;;;;;1.34;62.83;101397.94;5082851;27;61930;-82
2023/12/03 04:14:49;;;;;;;;;32.50;19.25;;;;;1.18;62.81;101371.81;5099135;27;45410;-85
2023/12/03 04:17:14;;;;;;;;;34.25;27.25;;;;;1.26;63.23;101397.09;5087895;27;51276;-85
2023/12/03 04:19:40;;;;;;;;;30.25;27.25;;;;;1.26;62.99;101394.47;5099097;27;45556;-85
2023/12/03 04:22:05;;;;;;;;;48.50;37.25;;;;;1.23;62.66;101394.50;5098839;27;46299;-85
2023/12/03 04:24:30;;;;;;;;;39.75;33.00;;;;;1.26;62.82;101399.72;5099632;27;48837;-85
2023/12/03 04:26:56;;;;;;;;;41.50;34.25;;;;;1.25;63.11;101392.72;5101682;27;45328;-85
2023/12/03 04:29:21;;;;;;;;;33.75;30.50;;;;;1.27;63.16;101412.81;5102050;27;45516;-84
2023/12/03 04:31:47;;;;;;;;;39.00;32.00;;;;;1.25;63.24;101416.31;5099251;27;71491;-83
2023/12/03 04:34:12;;;;;;;;;37.25;29.75;;;;;1.28;62.95;101424.16;5099635;27;45299;-85
2023/12/03 04:36:37;;;;;;;;;36.00;33.75;;;;;1.26;63.52;101425.91;5098137;27;53572;-87
2023/12/03 04:39:04;;;;;;;;;43.00;35.75;;;;;1.20;63.24;101403.25;5098721;27;50270;-85
2023/12/03 04:41:37;;;;;;;;;36.25;29.25;;;;;1.22;63.48;101419.81;5099378;27;45776;-85
2023/12/03 04:44:04;;;;;;;;;29.75;29.75;;;;;1.20;63.36;101405.00;5099996;27;45431;-87
2023/12/03 04:46:30;;;;;;;;;42.50;30.50;;;;;1.21;63.28;101404.97;5098581;27;45303;-86
2023/12/03 04:48:55;;;;;;;;;45.00;32.25;;;;;1.11;63.09;101395.41;5099088;27;45423;-85
2023/12/03 04:51:20;;;;;;;;;32.25;28.00;;;;;1.10;63.51;101410.25;5097680;27;46855;-82
2023/12/03 04:53:46;;;;;;;;;48.00;39.00;;;;;1.16;63.74;101404.97;5098091;27;45433;-83
2023/12/03 04:56:11;;;;;;;;;33.75;23.75;;;;;1.15;63.54;101392.75;5098596;27;45464;-84
2023/12/03 04:58:36;;;;;;;;;39.75;36.25;;;;;1.07;64.08;101389.31;5098569;27;45571;-87
2023/12/03 05:01:02;;;;;;;;;42.50;39.50;;;;;1.09;63.63;101386.69;5098936;27;60467;-85
2023/12/03 05:03:28;;;;;;;;;33.50;31.00;;;;;1.17;64.08;101377.03;5098927;27;45411;-84
2023/12/03 05:05:53;;;;;;;;;37.50;34.50;;;;;1.17;63.88;101380.56;5098281;27;45380;-84
2023/12/03 05:08:18;;;;;;;;;35.75;33.00;;;;;1.11;64.57;101375.34;5099138;27;45509;-84
2023/12/03 05:10:43;;;;;;;;;31.25;23.25;;;;;1.11;64.08;101383.19;5080426;27;61905;-84
2023/12/03 05:13:09;;;;;;;;;35.50;26.25;;;;;1.12;64.38;101391.91;5098833;27;58492;-83
2023/12/03 05:15:34;;;;;;;;;39.50;29.50;;;;;1.04;64.61;101373.63;5099367;27;45188;-84
2023/12/03 05:18:00;;;;;;;;;46.50;35.75;;;;;0.99;64.65;101380.63;5100972;27;52612;-85
2023/12/03 05:20:25;;;;;;;;;47.50;34.75;;;;;1.02;64.87;101385.84;5103055;27;45407;-85
2023/12/03 05:22:51;;;;;;;;;39.50;35.75;;;;;1.00;64.80;101386.72;5100317;27;45310;-86
2023/12/03 05:25:18;;;;;;;;;47.25;38.50;;;;;0.97;65.38;101382.38;5099430;27;45363;-82
2023/12/03 05:27:43;;;;;;;;;47.25;37.00;;;;;0.96;65.52;101388.50;5098383;27;45535;-84
2023/12/03 05:30:10;;;;;;;;;49.50;37.75;;;;;0.93;65.24;101380.66;5097817;27;46628;-84
2023/12/03 05:32:35;;;;;;;;;42.00;34.25;;;;;0.86;65.16;101365.84;5097836;27;45503;-85
2023/12/03 05:35:01;;;;;;;;;42.00;34.50;;;;;0.92;65.80;101373.69;5098309;27;45514;-83
2023/12/03 05:37:28;;;;;;;;;39.67;32.67;;;;;0.87;65.16;101370.19;5098343;27;45367;-87
2023/12/03 05:39:54;;;;;;;;;33.75;32.25;;;;;0.94;65.23;101377.16;5097954;27;46092;-82
2023/12/03 05:42:20;;;;;;;;;47.25;38.25;;;;;0.96;66.15;101372.78;5097747;27;45173;-86
2023/12/03 05:44:48;;;;;;;;;46.25;36.25;;;;;0.99;65.47;101371.91;5079751;27;45293;-85
2023/12/03 05:47:15;;;;;;;;;44.00;34.75;;;;;1.03;65.36;101353.53;5098661;27;45290;-84
2023/12/03 05:49:41;;;;;;;;;37.75;33.00;;;;;0.95;65.50;101360.56;5098167;27;45390;-87
2023/12/03 05:52:09;;;;;;;;;35.75;29.25;;;;;0.96;65.39;101345.72;5097900;27;45427;-85
2023/12/03 05:54:35;;;;;;;;;35.50;34.00;;;;;0.99;65.59;101357.06;5084659;27;45448;-87
2023/12/03 05:57:00;;;;;;;;;37.75;29.75;;;;;1.04;65.56;101371.03;5097473;27;45196;-86
2023/12/03 05:59:26;;;;;;;;;40.50;32.50;;;;;1.10;65.24;101363.13;5080101;27;56588;-84
2023/12/03 06:01:56;;;;;;;;;29.00;27.50;;;;;1.17;64.72;101377.03;5091131;27;45397;-86
2023/12/03 06:04:21;;;;;;;;;54.75;38.00;;;;;1.13;65.42;101356.97;5098049;27;45451;-85
2023/12/03 06:06:49;;;;;;;;;52.00;36.50;;;;;1.12;65.22;101350.88;5098104;27;45427;-86
2023/12/03 06:09:15;;;;;;;;;42.00;34.75;;;;;1.24;64.67;101370.91;5098076;27;46093;-86
2023/12/03 06:11:41;;;;;;;;;44.75;33.00;;;;;1.29;64.76;101378.72;5080096;27;45745;-82
2023/12/03 06:14:09;;;;;;;;;40.00;35.25;;;;;1.17;64.78;101350.84;5081001;27;45437;-87
2023/12/03 06:16:34;;;;;;;;;31.75;27.00;;;;;0.95;64.52;101302.94;5098426;27;45471;-85
2023/12/03 06:19:00;;;;;;;;;44.00;33.75;;;;;0.91;64.67;101314.31;5078486;27;47146;-86
2023/12/03 06:21:25;;;;;;;;;51.25;36.00;;;;;1.09;64.86;101348.28;5079214;27;45387;-88
2023/12/03 06:23:52;;;;;;;;;40.25;27.75;;;;;1.16;65.70;101354.34;5097364;27;45428;-86
2023/12/03 06:26:17;;;;;;;;;25.75;25.75;;;;;1.12;65.22;101340.41;5098618;27;45408;-84
2023/12/03 06:28:42;;;;;;;;;32.00;28.75;;;;;0.97;65.41;101324.75;5097802;27;45861;-85
2023/12/03 06:31:08;;;;;;;;;36.00;34.75;;;;;1.10;64.90;101336.06;5097460;27;47488;-87
2023/12/03 06:33:34;;;;;;;;;39.25;33.75;;;;;1.21;65.27;101363.06;5098098;27;45421;-86
2023/12/03 06:35:59;;;;;;;;;40.00;32.25;;;;;0.88;65.06;101293.38;5079545;27;45279;-83
2023/12/03 06:38:25;;;;;;;;;48.25;37.00;;;;;1.14;65.21;101340.38;5079262;27;46765;-85
2023/12/03 06:40:53;;;;;;;;;41.75;32.25;;;;;1.07;65.38;101330.84;5097773;27;45257;-86
2023/12/03 06:43:18;;;;;;;;;46.25;38.50;;;;;1.12;65.51;101335.16;5099177;27;45296;-83
2023/12/03 06:45:44;;;;;;;;;35.75;32.50;;;;;0.92;65.25;101302.97;5081044;27;45242;-86
2023/12/03 06:48:09;;;;;;;;;42.25;32.00;;;;;0.83;65.28;101296.03;5080973;27;46712;-85
2023/12/03 06:50:35;;;;;;;;;28.00;27.25;;;;;0.93;65.37;101304.72;5098221;27;45176;-86
2023/12/03 06:53:00;;;;;;;;;34.50;27.00;;;;;0.76;65.03;101278.59;5079522;27;45506;-86
2023/12/03 06:55:26;;;;;;;;;29.25;28.75;;;;;1.15;65.25;101348.22;5097544;27;45472;-84
2023/12/03 06:57:51;;;;;;;;;33.00;22.00;;;;;1.11;65.57;101358.75;5097587;27;45483;-86
2023/12/03 07:00:17;;;;;;;;;24.75;23.25;;;;;0.77;65.57;101303.03;5097467;27;45386;-85
2023/12/03 07:02:43;;;;;;;;;44.25;34.00;;;;;0.72;66.02;101320.50;5080275;27;45536;-81
2023/12/03 07:05:09;;;;;;;;;53.00;34.00;;;;;0.75;65.80;101317.88;5082948;27;45408;-86
2023/12/03 07:07:34;;;;;;;;;26.50;23.00;;;;;0.85;66.00;101323.06;5099187;27;47911;-86
2023/12/03 07:10:00;;;;;;;;;34.00;26.00;;;;;0.97;65.38;101340.47;5100479;27;45373;-87
2023/12/03 07:12:25;;;;;;;;;39.00;29.25;;;;;0.75;66.13;101292.56;5099833;27;45745;-84
2023/12/03 07:14:50;;;;;;;;;41.50;34.00;;;;;0.92;65.86;101323.06;5082254;27;45201;-87
2023/12/03 07:17:16;;;;;;;;;41.00;29.50;;;;;1.24;65.94;101364.78;5101007;27;45333;-85
2023/12/03 07:19:45;;;;;;;;;33.00;28.75;;;;;1.16;65.47;101349.97;5105327;27;44736;-89
2023/12/03 07:22:12;;;;;;;;;44.00;33.00;;;;;1.03;64.98;101323.84;5103586;27;45527;-89
2023/12/03 07:24:39;;;;;;;;;37.25;32.00;;;;;1.10;65.44;101346.53;5085326;27;45521;-83
2023/12/03 07:27:05;;;;;;;;;34.00;28.00;;;;;1.09;65.53;101335.19;5101602;27;47041;-83
2023/12/03 07:29:30;;;;;;;;;37.75;32.75;;;;;1.09;65.27;101337.78;5091616;27;45185;-81
2023/12/03 07:31:56;;;;;;;;;31.00;29.25;;;;;1.11;65.57;101341.28;5099709;27;45388;-82
2023/12/03 07:34:21;;;;;;;;;35.50;30.00;;;;;1.29;65.09;101370.88;5117737;27;45155;-84
2023/12/03 07:36:47;;;;;;;;;37.75;32.25;;;;;1.25;65.78;101371.78;5085756;27;46038;-85
2023/12/03 07:39:13;;;;;;;;;24.25;22.75;;;;;1.10;65.60;101352.63;5098417;27;45331;-87
2023/12/03 07:41:38;;;;;;;;;38.00;29.25;;;;;1.16;65.68;101375.28;5111986;27;45410;-83
2023/12/03 07:44:06;;;;;;;;;41.75;29.50;;;;;1.20;65.99;101378.78;5106583;27;45260;-84
2023/12/03 07:46:37;;;;;;;;;29.50;25.50;;;;;1.12;65.57;101368.34;5100311;27;47056;-86
2023/12/03 07:49:05;;;;;;;;;38.50;31.00;;;;;1.18;65.15;101360.47;5104706;27;45428;-83
2023/12/03 07:51:33;;;;;;;;;39.75;31.50;;;;;1.14;65.28;101349.09;5101674;27;45506;-85
2023/12/03 07:53:59;;;;;;;;;28.00;24.75;;;;;1.28;65.14;101364.75;5105790;27;45559;-84
2023/12/03 07:56:36;;;;;;;;;33.00;27.75;;;;;1.10;65.23;101357.88;5084504;27;46411;-82
2023/12/03 07:59:02;;;;;;;;;34.25;30.00;;;;;1.17;65.54;101364.84;5112835;27;45253;-84
2023/12/03 08:01:28;;;;;;;;;27.00;27.00;;;;;1.20;65.47;101353.47;5109537;27;45232;-81
2023/12/03 08:03:54;;;;;;;;;24.25;24.25;;;;;1.16;65.21;101367.44;5094337;27;45569;-86
2023/12/03 08:06:19;;;;;;;;;35.75;22.50;;;;;0.95;65.30;101326.53;5112826;27;45872;-84
2023/12/03 08:08:44;;;;;;;;;39.75;32.00;;;;;1.12;66.05;101332.53;5102667;27;45621;-82
2023/12/03 08:11:10;;;;;;;;;40.50;34.50;;;;;1.10;66.50;101338.66;5112150;27;45471;-82
2023/12/03 08:13:35;;;;;;;;;43.50;29.50;;;;;1.18;66.43;101314.19;5104466;27;45329;-83
2023/12/03 08:16:03;;;;;;;;;22.50;16.75;;;;;1.21;66.51;101328.13;5103620;27;45467;-86
2023/12/03 08:18:30;;;;;;;;;36.50;25.00;;;;;1.12;66.14;101321.19;5092818;27;45318;-82
2023/12/03 08:20:55;;;;;;;;;42.50;29.50;;;;;1.21;66.42;101328.13;5075038;27;45289;-86
2023/12/03 08:23:20;;;;;;;;;33.25;26.25;;;;;1.14;66.46;101312.44;5109833;27;63097;-83
2023/12/03 08:25:46;;;;;;;;;33.50;20.75;;;;;1.21;66.26;101334.25;5111759;27;55444;-81
2023/12/03 08:28:11;;;;;;;;;28.75;19.75;;;;;1.16;66.89;101294.94;5106203;27;63011;-83
2023/12/03 08:30:38;;;;;;;;;36.25;33.25;;;;;1.35;66.61;101316.69;5086199;27;45358;-84
2023/12/03 08:33:03;;;;;;;;;42.25;28.50;;;;;1.38;66.26;101328.88;5086976;27;45501;-83
2023/12/03 08:35:31;;;;;;;;;51.25;36.75;;;;;1.46;66.84;101330.59;5109887;27;45108;-82
2023/12/03 08:37:56;;;;;;;;;37.50;30.50;;;;;1.53;66.52;101333.16;5071377;27;45431;-86
2023/12/03 08:40:22;;;;;;;;;32.50;32.50;;;;;1.47;65.80;101328.84;5130340;27;45383;-84
2023/12/03 08:42:47;;;;;;;;;31.75;23.50;;;;;1.48;66.26;101325.31;5104610;27;45531;-86
2023/12/03 08:45:13;;;;;;;;;38.75;29.00;;;;;1.48;65.44;101313.09;5113353;27;46298;-87
2023/12/03 08:47:38;;;;;;;;;36.75;26.25;;;;;1.47;65.49;101318.34;5065673;28;45393;-81
2023/12/03 08:50:04;;;;;;;;;30.50;23.25;;;;;1.35;64.82;101311.44;5097546;27;45336;-85
2023/12/03 08:52:29;;;;;;;;;35.75;27.50;;;;;1.31;65.79;101299.25;5096580;27;45411;-87
2023/12/03 08:54:55;;;;;;;;;34.00;29.50;;;;;1.35;65.54;101295.72;5109517;27;45266;-85
2023/12/03 08:57:21;;;;;;;;;38.75;23.75;;;;;1.34;65.64;101287.88;5109316;27;45301;-89
2023/12/03 08:59:47;;;;;;;;;32.75;26.25;;;;;1.40;65.80;101301.78;5102004;27;45239;-84
2023/12/03 09:02:12;;;;;;;;;40.25;24.25;;;;;1.57;64.78;101322.66;5100106;27;45478;-86
2023/12/03 09:04:38;;;;;;;;;29.50;29.25;;;;;1.59;64.88;101317.38;5100792;27;46052;-86
2023/12/03 09:07:03;;;;;;;;;32.75;28.50;;;;;1.59;65.00;101310.41;5088725;27;45258;-83
2023/12/03 09:09:29;;;;;;;;;36.00;29.00;;;;;1.62;63.79;101312.13;5077899;27;58313;-82
2023/12/03 09:11:54;;;;;;;;;39.75;27.50;;;;;1.64;64.24;101311.22;5105439;27;53716;-83
2023/12/03 09:14:19;;;;;;;;;37.25;29.00;;;;;1.58;64.27;101297.31;5072794;27;45885;-83
2023/12/03 09:16:44;;;;;;;;;42.75;29.00;;;;;1.49;64.25;101306.09;5093744;27;45676;-83
2023/12/03 09:19:10;;;;;;;;;34.75;27.00;;;;;1.63;64.81;101319.97;5091769;27;50747;-84
2023/12/03 09:21:35;;;;;;;;;34.00;29.25;;;;;1.64;63.88;101311.22;5076828;27;45729;-78
2023/12/03 09:24:01;;;;;;;;;21.25;14.50;;;;;1.52;63.56;101282.47;5093338;27;45927;-82
2023/12/03 09:26:26;;;;;;;;;29.50;29.50;;;;;1.67;63.96;101318.19;5111831;27;45502;-83
2023/12/03 09:28:51;;;;;;;;;36.50;30.50;;;;;1.61;63.28;101302.50;5100670;27;45435;-81
2023/12/03 09:31:17;;;;;;;;;29.25;22.75;;;;;1.66;63.22;101309.44;5109850;27;45365;-80
2023/12/03 09:33:42;;;;;;;;;40.25;31.50;;;;;1.62;63.72;101292.00;5110381;27;45433;-82
2023/12/03 09:36:08;;;;;;;;;32.25;28.75;;;;;1.72;63.37;101296.31;5101212;27;45511;-83
2023/12/03 09:38:35;;;;;;;;;41.75;25.50;;;;;1.73;63.41;101297.16;5082466;27;45418;-82
2023/12/03 09:41:07;;;;;;;;;25.00;20.00;;;;;1.71;63.77;101286.69;5108161;27;45347;-82
2023/12/03 09:43:38;;;;;;;;;33.00;25.50;;;;;1.69;62.90;101285.84;5106731;27;45455;-82
2023/12/03 09:46:10;;;;;;;;;36.00;19.25;;;;;1.71;63.05;101289.31;5095117;27;45405;-83
2023/12/03 09:48:40;;;;;;;;;14.00;12.25;;;;;1.86;63.23;101303.19;5113466;27;45338;-85
2023/12/03 09:51:08;;;;;;;;;31.25;21.00;;;;;1.94;63.14;101291.72;5107427;27;45503;-87
2023/12/03 09:53:38;;;;;;;;;29.75;25.75;;;;;1.94;62.33;101296.97;5106527;27;46476;-83
2023/12/03 09:56:04;;;;;;;;;28.25;26.00;;;;;1.88;62.17;101290.91;5106071;27;45311;-82
2023/12/03 09:58:30;;;;;;;;;28.25;21.75;;;;;1.93;62.06;101289.09;5114549;27;45391;-83
2023/12/03 10:00:57;;;;;;;;;29.75;24.00;;;;;1.99;62.40;101282.06;5108036;27;45307;-82
2023/12/03 10:03:22;;;;;;;;;21.50;21.50;;;;;1.99;61.41;101284.69;5118014;27;45535;-87
2023/12/03 10:05:49;;;;;;;;;36.50;30.50;;;;;2.03;61.72;101301.25;5110425;27;45176;-81
2023/12/03 10:08:14;;;;;;;;;32.50;22.75;;;;;1.93;61.80;101270.75;5104138;27;45498;-83
2023/12/03 10:10:46;;;;;;;;;29.00;17.25;;;;;1.92;62.05;101277.75;5086320;27;45319;-86
2023/12/03 10:13:13;;;;;;;;;22.75;19.75;;;;;2.06;62.12;101301.22;5094503;27;45283;-83
2023/12/03 10:15:39;;;;;;;;;30.25;21.00;;;;;2.01;62.29;101287.28;5099563;27;45506;-87
2023/12/03 10:18:05;;;;;;;;;24.75;19.00;;;;;2.15;61.42;101295.88;5087792;27;45391;-85
2023/12/03 10:20:31;;;;;;;;;17.00;14.50;;;;;2.02;62.11;101279.41;5113463;27;45415;-84
2023/12/03 10:22:58;;;;;;;;;25.75;18.25;;;;;2.12;61.36;101290.69;5097622;27;45410;-87
2023/12/03 10:25:27;;;;;;;;;23.75;20.50;;;;;2.22;61.04;101294.97;5083477;27;45437;-84
2023/12/03 10:27:55;;;;;;;;;28.50;20.00;;;;;2.18;60.82;101282.72;5115472;27;45511;-89
2023/12/03 10:30:24;;;;;;;;;19.50;17.50;;;;;2.21;60.78;101273.94;5084009;27;45350;-83
2023/12/03 10:32:50;;;;;;;;;22.00;19.75;;;;;2.26;61.14;101288.78;5105280;27;45621;-85
2023/12/03 10:35:15;;;;;;;;;33.75;31.00;;;;;2.34;61.24;101289.56;5110946;27;45543;-82
2023/12/03 10:37:41;;;;;;;;;33.50;24.25;;;;;2.42;60.97;101280.72;5080853;27;45319;-85
2023/12/03 10:40:07;;;;;;;;;31.50;24.00;;;;;2.36;60.26;101261.56;5088785;27;45465;-83
2023/12/03 10:42:36;;;;;;;;;26.75;21.00;;;;;2.35;60.33;101259.81;5099047;27;45428;-80
2023/12/03 10:45:12;;;;;;;;;29.25;19.75;;;;;2.30;60.78;101234.50;5081142;27;46787;-85
2023/12/03 10:47:38;;;;;;;;;25.75;19.75;;;;;2.48;60.55;101241.28;5107309;27;45484;-86
2023/12/03 10:50:07;;;;;;;;;33.75;26.75;;;;;2.58;60.28;101250.75;5105733;27;45380;-84
2023/12/03 10:52:35;;;;;;;;;39.25;23.50;;;;;2.66;60.28;101243.66;5117700;27;45504;-84
2023/12/03 10:55:01;;;;;;;;;18.00;16.75;;;;;2.69;60.25;101248.88;5107899;27;45330;-84
2023/12/03 10:57:30;;;;;;;;;21.00;18.50;;;;;2.75;59.84;101243.56;5113488;27;45565;-79
2023/12/03 11:00:00;;;;;;;;;23.50;21.50;;;;;2.69;59.58;101237.50;5123909;27;45419;-81
2023/12/03 11:02:33;;;;;;;;;33.75;19.25;;;;;2.62;58.95;101219.22;5082710;27;46636;-82
2023/12/03 11:05:04;;;;;;;;;25.00;23.00;;;;;2.70;59.74;101241.84;5096228;27;45397;-88
2023/12/03 11:07:32;;;;;;;;;23.75;18.50;;;;;2.66;59.03;101235.78;5103169;27;45385;-87
2023/12/03 11:09:58;;;;;;;;;28.50;23.25;;;;;2.70;58.90;101233.97;5119406;27;45538;-84